sensor_id;sensor_type;location;lat;lon;timestamp;pressure;altitude;pressure_sealevel;temperature
76895;BMP280;65855;42.030;13.078;2023-05-31T00:01:14;93623.41;;;11.46
76895;BMP280;65855;42.030;13.078;2023-05-31T00:03:39;93622.66;;;11.45
76895;BMP280;65855;42.030;13.078;2023-05-31T00:06:11;93619.00;;;11.38
76895;BMP280;65855;42.030;13.078;2023-05-31T00:08:37;93617.19;;;11.25
76895;BMP280;65855;42.030;13.078;2023-05-31T00:11:03;93625.41;;;11.30
76895;BMP280;65855;42.030;13.078;2023-05-31T00:13:28;93624.72;;;11.43
76895;BMP280;65855;42.030;13.078;2023-05-31T00:15:54;93623.22;;;11.55
76895;BMP280;65855;42.030;13.078;2023-05-31T00:18:19;93622.84;;;11.49
76895;BMP280;65855;42.030;13.078;2023-05-31T00:20:45;93629.66;;;11.61
76895;BMP280;65855;42.030;13.078;2023-05-31T00:23:10;93622.28;;;11.78
76895;BMP280;65855;42.030;13.078;2023-05-31T00:25:36;93629.38;;;11.76
76895;BMP280;65855;42.030;13.078;2023-05-31T00:28:01;93627.88;;;11.62
76895;BMP280;65855;42.030;13.078;2023-05-31T00:30:27;93621.16;;;11.71
76895;BMP280;65855;42.030;13.078;2023-05-31T00:32:52;93627.69;;;11.85
76895;BMP280;65855;42.030;13.078;2023-05-31T00:35:17;93631.03;;;11.94
76895;BMP280;65855;42.030;13.078;2023-05-31T00:37:43;93628.16;;;11.87
76895;BMP280;65855;42.030;13.078;2023-05-31T00:40:08;93629.94;;;11.86
76895;BMP280;65855;42.030;13.078;2023-05-31T00:42:34;93630.63;;;11.52
76895;BMP280;65855;42.030;13.078;2023-05-31T00:45:00;93638.00;;;11.49
76895;BMP280;65855;42.030;13.078;2023-05-31T00:47:26;93639.69;;;11.53
76895;BMP280;65855;42.030;13.078;2023-05-31T00:49:53;93635.19;;;11.63
76895;BMP280;65855;42.030;13.078;2023-05-31T00:52:19;93635.75;;;11.60
76895;BMP280;65855;42.030;13.078;2023-05-31T00:54:45;93639.09;;;11.56
76895;BMP280;65855;42.030;13.078;2023-05-31T00:57:10;93633.22;;;11.60
76895;BMP280;65855;42.030;13.078;2023-05-31T00:59:36;93636.47;;;11.74
76895;BMP280;65855;42.030;13.078;2023-05-31T01:02:02;93640.41;;;11.80
76895;BMP280;65855;42.030;13.078;2023-05-31T01:04:30;93640.41;;;11.67
76895;BMP280;65855;42.030;13.078;2023-05-31T01:06:55;93638.72;;;11.62
76895;BMP280;65855;42.030;13.078;2023-05-31T01:09:21;93638.19;;;11.65
76895;BMP280;65855;42.030;13.078;2023-05-31T01:11:56;93630.31;;;11.53
76895;BMP280;65855;42.030;13.078;2023-05-31T01:14:46;93632.94;;;11.62
76895;BMP280;65855;42.030;13.078;2023-05-31T01:17:39;93632.38;;;11.65
76895;BMP280;65855;42.030;13.078;2023-05-31T01:20:08;93625.56;;;11.65
76895;BMP280;65855;42.030;13.078;2023-05-31T01:28:30;93635.00;;;11.47
76895;BMP280;65855;42.030;13.078;2023-05-31T01:31:00;93627.53;;;11.42
76895;BMP280;65855;42.030;13.078;2023-05-31T01:33:26;93631.66;;;11.51
76895;BMP280;65855;42.030;13.078;2023-05-31T01:35:52;93632.66;;;11.63
76895;BMP280;65855;42.030;13.078;2023-05-31T01:38:17;93628.44;;;11.72
76895;BMP280;65855;42.030;13.078;2023-05-31T01:40:43;93633.41;;;11.77
76895;BMP280;65855;42.030;13.078;2023-05-31T01:43:09;93624.28;;;11.89
76895;BMP280;65855;42.030;13.078;2023-05-31T01:45:35;93630.66;;;12.00
76895;BMP280;65855;42.030;13.078;2023-05-31T01:48:04;93628.88;;;12.00
76895;BMP280;65855;42.030;13.078;2023-05-31T01:50:32;93623.00;;;11.92
76895;BMP280;65855;42.030;13.078;2023-05-31T01:52:58;93630.09;;;11.76
76895;BMP280;65855;42.030;13.078;2023-05-31T01:55:23;93634.31;;;11.81
76895;BMP280;65855;42.030;13.078;2023-05-31T01:57:50;93631.59;;;11.91
76895;BMP280;65855;42.030;13.078;2023-05-31T02:00:17;93628.44;;;11.72
76895;BMP280;65855;42.030;13.078;2023-05-31T02:02:43;93634.25;;;11.59
76895;BMP280;65855;42.030;13.078;2023-05-31T02:05:10;93626.78;;;11.54
76895;BMP280;65855;42.030;13.078;2023-05-31T02:07:41;93624.16;;;11.59
76895;BMP280;65855;42.030;13.078;2023-05-31T02:10:08;93623.19;;;11.69
76895;BMP280;65855;42.030;13.078;2023-05-31T02:12:34;93622.72;;;11.80
76895;BMP280;65855;42.030;13.078;2023-05-31T02:14:59;93626.72;;;11.94
76895;BMP280;65855;42.030;13.078;2023-05-31T02:17:25;93614.97;;;11.90
76895;BMP280;65855;42.030;13.078;2023-05-31T02:19:51;93623.31;;;11.77
76895;BMP280;65855;42.030;13.078;2023-05-31T02:22:17;93626.38;;;11.74
76895;BMP280;65855;42.030;13.078;2023-05-31T02:24:43;93616.94;;;11.66
76895;BMP280;65855;42.030;13.078;2023-05-31T02:27:09;93617.97;;;11.65
76895;BMP280;65855;42.030;13.078;2023-05-31T02:29:35;93627.31;;;11.78
76895;BMP280;65855;42.030;13.078;2023-05-31T02:32:01;93618.13;;;11.82
76895;BMP280;65855;42.030;13.078;2023-05-31T02:34:27;93626.94;;;11.84
76895;BMP280;65855;42.030;13.078;2023-05-31T02:36:52;93622.38;;;11.73
76895;BMP280;65855;42.030;13.078;2023-05-31T02:39:18;93630.13;;;11.63
76895;BMP280;65855;42.030;13.078;2023-05-31T02:41:44;93632.19;;;11.61
76895;BMP280;65855;42.030;13.078;2023-05-31T02:44:09;93628.44;;;11.72
76895;BMP280;65855;42.030;13.078;2023-05-31T02:46:35;93624.03;;;11.91
76895;BMP280;65855;42.030;13.078;2023-05-31T02:49:01;93619.53;;;11.88
76895;BMP280;65855;42.030;13.078;2023-05-31T02:51:26;93615.59;;;11.82
76895;BMP280;65855;42.030;13.078;2023-05-31T02:53:51;93616.19;;;11.79
76895;BMP280;65855;42.030;13.078;2023-05-31T02:56:17;93615.50;;;11.87
76895;BMP280;65855;42.030;13.078;2023-05-31T02:58:43;93611.41;;;11.91
76895;BMP280;65855;42.030;13.078;2023-05-31T03:01:09;93612.88;;;11.92
76895;BMP280;65855;42.030;13.078;2023-05-31T03:03:34;93616.63;;;11.81
76895;BMP280;65855;42.030;13.078;2023-05-31T03:06:00;93610.41;;;11.65
76895;BMP280;65855;42.030;13.078;2023-05-31T03:08:28;93612.75;;;11.49
76895;BMP280;65855;42.030;13.078;2023-05-31T03:10:53;93603.59;;;11.52
76895;BMP280;65855;42.030;13.078;2023-05-31T03:13:18;93605.63;;;11.64
76895;BMP280;65855;42.030;13.078;2023-05-31T03:15:44;93606.63;;;11.76
76895;BMP280;65855;42.030;13.078;2023-05-31T03:18:10;93608.69;;;11.87
76895;BMP280;65855;42.030;13.078;2023-05-31T03:20:35;93595.84;;;11.97
76895;BMP280;65855;42.030;13.078;2023-05-31T03:23:01;93598.75;;;12.04
76895;BMP280;65855;42.030;13.078;2023-05-31T03:25:26;93583.25;;;12.19
76895;BMP280;65855;42.030;13.078;2023-05-31T03:27:52;93597.56;;;11.75
76895;BMP280;65855;42.030;13.078;2023-05-31T03:30:17;93593.28;;;11.62
76895;BMP280;65855;42.030;13.078;2023-05-31T03:32:43;93595.25;;;11.78
76895;BMP280;65855;42.030;13.078;2023-05-31T03:35:08;93592.00;;;12.00
76895;BMP280;65855;42.030;13.078;2023-05-31T03:37:34;93593.69;;;12.04
76895;BMP280;65855;42.030;13.078;2023-05-31T03:39:59;93604.28;;;11.93
76895;BMP280;65855;42.030;13.078;2023-05-31T03:42:25;93604.69;;;11.73
76895;BMP280;65855;42.030;13.078;2023-05-31T03:44:50;93611.16;;;11.52
76895;BMP280;65855;42.030;13.078;2023-05-31T03:47:15;93617.78;;;11.35
76895;BMP280;65855;42.030;13.078;2023-05-31T03:49:41;93610.09;;;11.01
76895;BMP280;65855;42.030;13.078;2023-05-31T03:52:07;93612.84;;;10.86
76895;BMP280;65855;42.030;13.078;2023-05-31T03:54:34;93615.91;;;10.70
76895;BMP280;65855;42.030;13.078;2023-05-31T03:56:59;93618.41;;;10.70
76895;BMP280;65855;42.030;13.078;2023-05-31T03:59:25;93621.50;;;10.80
76895;BMP280;65855;42.030;13.078;2023-05-31T04:01:51;93618.91;;;10.85
76895;BMP280;65855;42.030;13.078;2023-05-31T04:04:16;93627.44;;;10.89
76895;BMP280;65855;42.030;13.078;2023-05-31T04:06:42;93627.72;;;10.87
76895;BMP280;65855;42.030;13.078;2023-05-31T04:09:07;93622.16;;;10.72
76895;BMP280;65855;42.030;13.078;2023-05-31T04:11:32;93633.47;;;10.43
76895;BMP280;65855;42.030;13.078;2023-05-31T04:13:58;93634.47;;;10.42
76895;BMP280;65855;42.030;13.078;2023-05-31T04:16:23;93639.88;;;10.36
76895;BMP280;65855;42.030;13.078;2023-05-31T04:18:49;93637.53;;;10.39
76895;BMP280;65855;42.030;13.078;2023-05-31T04:21:14;93641.81;;;10.57
76895;BMP280;65855;42.030;13.078;2023-05-31T04:23:40;93631.69;;;10.75
76895;BMP280;65855;42.030;13.078;2023-05-31T04:26:05;93636.28;;;10.86
76895;BMP280;65855;42.030;13.078;2023-05-31T04:28:32;93630.38;;;11.22
76895;BMP280;65855;42.030;13.078;2023-05-31T04:30:57;93633.88;;;11.52
76895;BMP280;65855;42.030;13.078;2023-05-31T04:33:23;93628.44;;;11.72
76895;BMP280;65855;42.030;13.078;2023-05-31T04:35:49;93629.25;;;11.94
76895;BMP280;65855;42.030;13.078;2023-05-31T04:38:16;93621.78;;;12.02
76895;BMP280;65855;42.030;13.078;2023-05-31T04:40:41;93623.34;;;11.99
76895;BMP280;65855;42.030;13.078;2023-05-31T04:43:07;93630.84;;;12.03
76895;BMP280;65855;42.030;13.078;2023-05-31T04:45:33;93625.56;;;12.13
76895;BMP280;65855;42.030;13.078;2023-05-31T04:47:58;93632.59;;;12.38
76895;BMP280;65855;42.030;13.078;2023-05-31T04:50:25;93621.38;;;12.87
76895;BMP280;65855;42.030;13.078;2023-05-31T04:52:50;93622.00;;;13.22
76895;BMP280;65855;42.030;13.078;2023-05-31T04:55:17;93624.97;;;13.62
76895;BMP280;65855;42.030;13.078;2023-05-31T04:57:43;93631.06;;;13.99
76895;BMP280;65855;42.030;13.078;2023-05-31T05:00:09;93625.69;;;13.93
76895;BMP280;65855;42.030;13.078;2023-05-31T05:02:41;93633.16;;;14.14
76895;BMP280;65855;42.030;13.078;2023-05-31T05:05:07;93636.75;;;14.46
76895;BMP280;65855;42.030;13.078;2023-05-31T05:07:33;93631.97;;;14.70
76895;BMP280;65855;42.030;13.078;2023-05-31T05:09:58;93629.25;;;15.00
76895;BMP280;65855;42.030;13.078;2023-05-31T05:12:24;93640.63;;;15.02
76895;BMP280;65855;42.030;13.078;2023-05-31T05:14:49;93632.22;;;15.10
76895;BMP280;65855;42.030;13.078;2023-05-31T05:17:14;93634.19;;;15.13
76895;BMP280;65855;42.030;13.078;2023-05-31T05:19:40;93642.13;;;14.87
76895;BMP280;65855;42.030;13.078;2023-05-31T05:22:05;93634.97;;;15.05
76895;BMP280;65855;42.030;13.078;2023-05-31T05:24:31;93635.94;;;15.21
76895;BMP280;65855;42.030;13.078;2023-05-31T05:26:56;93632.03;;;15.32
76895;BMP280;65855;42.030;13.078;2023-05-31T05:29:22;93626.19;;;15.39
76895;BMP280;65855;42.030;13.078;2023-05-31T05:31:47;93625.22;;;15.52
76895;BMP280;65855;42.030;13.078;2023-05-31T05:34:14;93626.44;;;15.46
76895;BMP280;65855;42.030;13.078;2023-05-31T05:36:40;93630.53;;;15.76
76895;BMP280;65855;42.030;13.078;2023-05-31T05:39:06;93626.00;;;16.10
76895;BMP280;65855;42.030;13.078;2023-05-31T05:41:33;93624.91;;;16.19
76895;BMP280;65855;42.030;13.078;2023-05-31T05:43:59;93627.41;;;16.47
76895;BMP280;65855;42.030;13.078;2023-05-31T05:46:24;93614.47;;;16.72
76895;BMP280;65855;42.030;13.078;2023-05-31T05:48:50;93622.97;;;17.08
76895;BMP280;65855;42.030;13.078;2023-05-31T05:51:16;93616.16;;;17.44
76895;BMP280;65855;42.030;13.078;2023-05-31T05:53:41;93618.59;;;17.64
76895;BMP280;65855;42.030;13.078;2023-05-31T05:56:07;93622.72;;;17.68
76895;BMP280;65855;42.030;13.078;2023-05-31T05:58:32;93622.53;;;17.85
76895;BMP280;65855;42.030;13.078;2023-05-31T06:00:57;93618.16;;;17.62
76895;BMP280;65855;42.030;13.078;2023-05-31T06:03:23;93621.56;;;17.89
76895;BMP280;65855;42.030;13.078;2023-05-31T06:05:48;93628.03;;;17.87
76895;BMP280;65855;42.030;13.078;2023-05-31T06:08:14;93633.22;;;17.32
76895;BMP280;65855;42.030;13.078;2023-05-31T06:10:39;93627.31;;;16.76
76895;BMP280;65855;42.030;13.078;2023-05-31T06:13:06;93633.41;;;16.23
76895;BMP280;65855;42.030;13.078;2023-05-31T06:15:32;93631.84;;;16.10
76895;BMP280;65855;42.030;13.078;2023-05-31T06:17:57;93631.19;;;16.93
76895;BMP280;65855;42.030;13.078;2023-05-31T06:20:23;93620.50;;;17.43
76895;BMP280;65855;42.030;13.078;2023-05-31T06:22:48;93626.28;;;16.88
76895;BMP280;65855;42.030;13.078;2023-05-31T06:25:15;93617.94;;;16.68
76895;BMP280;65855;42.030;13.078;2023-05-31T06:27:41;93622.56;;;16.54
76895;BMP280;65855;42.030;13.078;2023-05-31T06:30:07;93632.53;;;16.91
76895;BMP280;65855;42.030;13.078;2023-05-31T06:32:35;93621.25;;;17.44
76895;BMP280;65855;42.030;13.078;2023-05-31T06:35:01;93629.06;;;17.27
76895;BMP280;65855;42.030;13.078;2023-05-31T06:37:27;93619.88;;;17.58
76895;BMP280;65855;42.030;13.078;2023-05-31T06:39:52;93623.31;;;17.18
76895;BMP280;65855;42.030;13.078;2023-05-31T06:42:19;93621.91;;;17.64
76895;BMP280;65855;42.030;13.078;2023-05-31T06:44:45;93626.03;;;17.80
76895;BMP280;65855;42.030;13.078;2023-05-31T06:47:11;93626.66;;;18.25
76895;BMP280;65855;42.030;13.078;2023-05-31T06:49:36;93618.81;;;18.06
76895;BMP280;65855;42.030;13.078;2023-05-31T06:52:02;93618.03;;;19.22
76895;BMP280;65855;42.030;13.078;2023-05-31T06:54:27;93622.66;;;20.41
76895;BMP280;65855;42.030;13.078;2023-05-31T06:56:54;93616.75;;;21.30
76895;BMP280;65855;42.030;13.078;2023-05-31T06:59:19;93618.00;;;21.62
76895;BMP280;65855;42.030;13.078;2023-05-31T07:01:45;93608.41;;;21.81
76895;BMP280;65855;42.030;13.078;2023-05-31T07:04:10;93611.06;;;22.10
76895;BMP280;65855;42.030;13.078;2023-05-31T07:06:36;93613.66;;;22.39
76895;BMP280;65855;42.030;13.078;2023-05-31T07:09:06;93612.53;;;22.11
76895;BMP280;65855;42.030;13.078;2023-05-31T07:11:31;93616.38;;;22.23
76895;BMP280;65855;42.030;13.078;2023-05-31T07:13:57;93612.13;;;22.34
76895;BMP280;65855;42.030;13.078;2023-05-31T07:16:29;93608.53;;;23.00
76895;BMP280;65855;42.030;13.078;2023-05-31T07:18:55;93606.00;;;22.16
76895;BMP280;65855;42.030;13.078;2023-05-31T07:21:21;93609.72;;;22.73
76895;BMP280;65855;42.030;13.078;2023-05-31T07:23:46;93600.59;;;23.12
76895;BMP280;65855;42.030;13.078;2023-05-31T07:26:12;93603.31;;;23.64
76895;BMP280;65855;42.030;13.078;2023-05-31T07:28:38;93601.13;;;24.12
76895;BMP280;65855;42.030;13.078;2023-05-31T07:31:03;93605.31;;;23.42
76895;BMP280;65855;42.030;13.078;2023-05-31T07:33:29;93603.78;;;24.30
76895;BMP280;65855;42.030;13.078;2023-05-31T07:35:57;93601.09;;;24.79
76895;BMP280;65855;42.030;13.078;2023-05-31T07:38:23;93609.25;;;22.97
76895;BMP280;65855;42.030;13.078;2023-05-31T07:40:48;93605.19;;;21.87
76895;BMP280;65855;42.030;13.078;2023-05-31T07:43:14;93605.78;;;22.54
76895;BMP280;65855;42.030;13.078;2023-05-31T07:45:39;93600.66;;;23.58
76895;BMP280;65855;42.030;13.078;2023-05-31T07:48:05;93597.47;;;24.24
76895;BMP280;65855;42.030;13.078;2023-05-31T07:50:30;93605.66;;;24.36
76895;BMP280;65855;42.030;13.078;2023-05-31T07:52:56;93607.63;;;24.63
76895;BMP280;65855;42.030;13.078;2023-05-31T07:55:21;93590.88;;;25.13
76895;BMP280;65855;42.030;13.078;2023-05-31T07:57:47;93590.91;;;25.17
76895;BMP280;65855;42.030;13.078;2023-05-31T08:00:13;93590.91;;;25.20
76895;BMP280;65855;42.030;13.078;2023-05-31T08:02:41;93588.13;;;24.65
76895;BMP280;65855;42.030;13.078;2023-05-31T08:05:08;93590.84;;;24.23
76895;BMP280;65855;42.030;13.078;2023-05-31T08:07:33;93588.13;;;24.65
76895;BMP280;65855;42.030;13.078;2023-05-31T08:09:59;93583.44;;;23.62
76895;BMP280;65855;42.030;13.078;2023-05-31T08:12:24;93581.53;;;22.51
76895;BMP280;65855;42.030;13.078;2023-05-31T08:14:50;93580.59;;;22.37
76895;BMP280;65855;42.030;13.078;2023-05-31T08:17:15;93574.28;;;21.55
76895;BMP280;65855;42.030;13.078;2023-05-31T08:19:41;93580.81;;;22.54
76895;BMP280;65855;42.030;13.078;2023-05-31T08:22:06;93570.69;;;22.10
76895;BMP280;65855;42.030;13.078;2023-05-31T08:24:32;93575.88;;;21.66
76895;BMP280;65855;42.030;13.078;2023-05-31T08:26:57;93569.00;;;23.50
76895;BMP280;65855;42.030;13.078;2023-05-31T08:29:23;93570.19;;;23.66
76895;BMP280;65855;42.030;13.078;2023-05-31T08:31:49;93574.94;;;22.54
76895;BMP280;65855;42.030;13.078;2023-05-31T08:34:14;93567.09;;;23.93
76895;BMP280;65855;42.030;13.078;2023-05-31T08:36:40;93554.75;;;25.03
76895;BMP280;65855;42.030;13.078;2023-05-31T08:39:08;93560.28;;;25.02
76895;BMP280;65855;42.030;13.078;2023-05-31T08:42:03;93554.00;;;25.03
76895;BMP280;65855;42.030;13.078;2023-05-31T08:44:28;93565.84;;;25.28
76895;BMP280;65855;42.030;13.078;2023-05-31T08:46:58;93561.44;;;26.14
76895;BMP280;65855;42.030;13.078;2023-05-31T08:49:24;93564.16;;;26.95
76895;BMP280;65855;42.030;13.078;2023-05-31T08:51:50;93553.34;;;26.02
76895;BMP280;65855;42.030;13.078;2023-05-31T08:54:16;93564.78;;;27.12
76895;BMP280;65855;42.030;13.078;2023-05-31T08:56:43;93555.31;;;27.96
76895;BMP280;65855;42.030;13.078;2023-05-31T08:59:10;93560.44;;;26.96
76895;BMP280;65855;42.030;13.078;2023-05-31T09:01:37;93555.53;;;26.00
76895;BMP280;65855;42.030;13.078;2023-05-31T09:04:06;93569.22;;;25.69
76895;BMP280;65855;42.030;13.078;2023-05-31T09:06:33;93571.75;;;25.25
76895;BMP280;65855;42.030;13.078;2023-05-31T09:08:59;93569.94;;;25.56
76895;BMP280;65855;42.030;13.078;2023-05-31T09:11:25;93575.84;;;24.42
76895;BMP280;65855;42.030;13.078;2023-05-31T09:13:52;93581.31;;;23.77
76895;BMP280;65855;42.030;13.078;2023-05-31T09:16:17;93578.75;;;23.74
76895;BMP280;65855;42.030;13.078;2023-05-31T09:18:43;93584.44;;;24.00
76895;BMP280;65855;42.030;13.078;2023-05-31T09:21:10;93579.56;;;23.06
76895;BMP280;65855;42.030;13.078;2023-05-31T09:23:36;93587.34;;;23.10
76895;BMP280;65855;42.030;13.078;2023-05-31T09:26:06;93590.84;;;21.86
76895;BMP280;65855;42.030;13.078;2023-05-31T09:28:31;93586.16;;;22.42
76895;BMP280;65855;42.030;13.078;2023-05-31T09:31:04;93586.53;;;22.41
76895;BMP280;65855;42.030;13.078;2023-05-31T09:33:38;93599.56;;;22.84
76895;BMP280;65855;42.030;13.078;2023-05-31T09:36:05;93592.34;;;22.96
76895;BMP280;65855;42.030;13.078;2023-05-31T09:38:34;93572.59;;;23.88
76895;BMP280;65855;42.030;13.078;2023-05-31T09:41:19;93582.91;;;23.92
76895;BMP280;65855;42.030;13.078;2023-05-31T09:43:46;93583.38;;;23.55
76895;BMP280;65855;42.030;13.078;2023-05-31T09:48:42;93578.38;;;24.25
76895;BMP280;65855;42.030;13.078;2023-05-31T09:51:08;93580.25;;;24.31
76895;BMP280;65855;42.030;13.078;2023-05-31T09:53:52;93578.72;;;23.31
76895;BMP280;65855;42.030;13.078;2023-05-31T09:56:21;93575.34;;;21.79
76895;BMP280;65855;42.030;13.078;2023-05-31T09:58:48;93581.38;;;21.02
76895;BMP280;65855;42.030;13.078;2023-05-31T10:01:20;93582.47;;;20.26
76895;BMP280;65855;42.030;13.078;2023-05-31T10:03:49;93584.22;;;20.22
76895;BMP280;65855;42.030;13.078;2023-05-31T10:06:16;93579.78;;;20.20
76895;BMP280;65855;42.030;13.078;2023-05-31T10:08:43;93584.56;;;20.40
76895;BMP280;65855;42.030;13.078;2023-05-31T10:11:09;93578.31;;;20.93
76895;BMP280;65855;42.030;13.078;2023-05-31T10:13:41;93596.00;;;20.61
76895;BMP280;65855;42.030;13.078;2023-05-31T10:16:08;93590.88;;;19.93
76895;BMP280;65855;42.030;13.078;2023-05-31T10:18:37;93589.84;;;20.13
76895;BMP280;65855;42.030;13.078;2023-05-31T10:21:10;93588.91;;;20.02
76895;BMP280;65855;42.030;13.078;2023-05-31T10:23:43;93591.88;;;20.56
76895;BMP280;65855;42.030;13.078;2023-05-31T10:26:13;93586.41;;;20.76
76895;BMP280;65855;42.030;13.078;2023-05-31T10:29:00;93587.63;;;20.82
76895;BMP280;65855;42.030;13.078;2023-05-31T10:31:31;93604.03;;;20.25
76895;BMP280;65855;42.030;13.078;2023-05-31T10:34:14;93593.72;;;19.73
76895;BMP280;65855;42.030;13.078;2023-05-31T10:36:41;93602.97;;;20.11
76895;BMP280;65855;42.030;13.078;2023-05-31T10:39:33;93607.66;;;20.24
76895;BMP280;65855;42.030;13.078;2023-05-31T10:44:38;93621.53;;;19.44
76895;BMP280;65855;42.030;13.078;2023-05-31T10:47:05;93634.59;;;19.27
76895;BMP280;65855;42.030;13.078;2023-05-31T10:49:35;93631.72;;;18.75
76895;BMP280;65855;42.030;13.078;2023-05-31T10:52:06;93625.75;;;18.44
76895;BMP280;65855;42.030;13.078;2023-05-31T10:54:33;93630.66;;;18.49
76895;BMP280;65855;42.030;13.078;2023-05-31T10:56:59;93629.00;;;18.29
76895;BMP280;65855;42.030;13.078;2023-05-31T10:59:29;93631.03;;;17.89
76895;BMP280;65855;42.030;13.078;2023-05-31T11:01:56;93623.28;;;17.50
76895;BMP280;65855;42.030;13.078;2023-05-31T11:04:25;93631.03;;;17.10
